Time;durP1;ratioP1;P1;durP2;ratioP2;P2;SDS_P1;SDS_P2;PMS_P1;PMS_P2;Temp;Humidity;BMP_temperature;BMP_pressure;BME280_temperature;BME280_humidity;BME280_pressure;Samples;Min_cycle;Max_cycle;Signal;HPM_P1;HPM_P2
2023/10/01 04:32:27;;;;;;;;;19.50;17.25;;;;;26.60;43.03;101919.19;4290319;26;46518;-80
2023/10/01 04:35:01;;;;;;;;;13.00;12.00;;;;;26.68;42.87;101928.47;5035121;28;45399;-80
2023/10/01 04:37:41;;;;;;;;;17.75;16.50;;;;;26.69;42.76;101921.09;5034763;28;46180;-80
2023/10/01 04:42:55;;;;;;;;;18.25;15.25;;;;;26.60;43.14;101917.31;5034531;28;45462;-82
2023/10/01 04:45:24;;;;;;;;;14.50;11.25;;;;;26.59;42.97;101920.22;5034323;28;45320;-83
2023/10/01 04:47:55;;;;;;;;;13.50;12.00;;;;;26.63;43.36;101935.41;5016961;28;46418;-79
2023/10/01 04:50:27;;;;;;;;;18.75;15.50;;;;;26.58;43.39;101922.09;5034249;28;45330;-79
2023/10/01 04:52:59;;;;;;;;;17.00;15.25;;;;;26.67;43.21;101932.22;5034049;28;45535;-81
2023/10/01 04:55:28;;;;;;;;;16.00;16.00;;;;;26.62;43.47;101934.56;5034475;28;45286;-82
2023/10/01 04:57:57;;;;;;;;;18.75;16.50;;;;;26.48;43.36;101912.09;5034177;28;46155;-80
2023/10/01 05:00:26;;;;;;;;;13.75;13.75;;;;;26.71;43.24;101935.56;5032722;28;45350;-80
2023/10/01 05:02:52;;;;;;;;;17.50;16.75;;;;;26.57;43.27;101917.59;5033966;28;45440;-81
2023/10/01 05:05:25;;;;;;;;;17.00;16.25;;;;;26.67;42.95;101932.22;5033872;28;45328;-81
2023/10/01 05:07:59;;;;;;;;;15.25;13.75;;;;;26.67;43.38;101937.72;5016272;28;47490;-81
2023/10/01 05:10:28;;;;;;;;;18.75;15.50;;;;;26.51;43.05;101912.69;5038093;28;45344;-79
2023/10/01 05:13:02;;;;;;;;;15.50;15.50;;;;;26.61;43.29;101937.44;5019386;28;45494;-82
2023/10/01 05:15:35;;;;;;;;;15.75;15.75;;;;;26.47;43.02;101924.97;5019548;28;46990;-81
2023/10/01 05:18:04;;;;;;;;;16.00;14.00;;;;;26.47;43.71;101922.22;5036116;28;47189;-80
2023/10/01 05:20:30;;;;;;;;;18.25;14.75;;;;;26.50;43.64;101938.47;5037278;28;45455;-80
2023/10/01 05:22:58;;;;;;;;;20.50;14.50;;;;;26.44;43.68;101930.78;5037669;28;45482;-81
2023/10/01 05:25:27;;;;;;;;;19.50;16.50;;;;;26.37;43.48;101935.09;5038221;28;45499;-81
2023/10/01 05:27:56;;;;;;;;;18.00;17.00;;;;;26.37;43.67;101935.97;5037361;28;45529;-81
2023/10/01 05:30:42;;;;;;;;;19.50;18.25;;;;;26.36;43.85;101938.91;5019037;28;45457;-80
2023/10/01 05:33:11;;;;;;;;;16.00;14.25;;;;;26.27;43.96;101929.63;5037201;28;45476;-80
2023/10/01 05:35:43;;;;;;;;;11.00;11.00;;;;;26.34;43.54;101943.66;5019684;28;46187;-80
2023/10/01 05:38:10;;;;;;;;;15.00;14.50;;;;;26.26;44.07;101938.00;5037316;28;45576;-79
2023/10/01 05:40:40;;;;;;;;;16.00;16.00;;;;;26.17;43.42;101923.22;5020117;28;45330;-78
2023/10/01 05:43:15;;;;;;;;;14.25;13.00;;;;;26.37;43.81;101954.34;5023654;28;45460;-80
2023/10/01 05:45:44;;;;;;;;;17.75;13.50;;;;;26.32;43.86;101946.53;5025025;28;46055;-79
2023/10/01 05:48:10;;;;;;;;;17.00;13.75;;;;;26.18;43.70;101930.44;5039085;28;45422;-79
2023/10/01 05:50:41;;;;;;;;;18.50;17.25;;;;;26.24;43.73;101954.59;5037266;28;45233;-80
2023/10/01 05:53:09;;;;;;;;;20.25;16.50;;;;;26.19;43.73;101951.44;5037058;28;45340;-79
2023/10/01 05:55:35;;;;;;;;;17.50;14.50;;;;;26.07;44.11;101926.94;5036865;28;45344;-81
2023/10/01 05:58:12;;;;;;;;;16.25;14.75;;;;;26.14;43.89;101944.59;5037008;28;46242;-80
2023/10/01 06:00:57;;;;;;;;;15.00;14.25;;;;;26.18;44.30;101949.69;5036927;28;45493;-79
2023/10/01 06:03:25;;;;;;;;;18.75;16.75;;;;;26.11;44.14;101937.53;5037016;28;45478;-80
2023/10/01 06:05:57;;;;;;;;;21.00;16.25;;;;;26.23;43.90;101954.75;5036979;28;45497;-81
2023/10/01 06:08:26;;;;;;;;;19.50;16.00;;;;;26.24;44.02;101953.75;5036993;28;46062;-81
2023/10/01 06:11:06;;;;;;;;;19.25;17.75;;;;;26.26;43.83;101962.75;5036809;28;45562;-79
2023/10/01 06:13:37;;;;;;;;;20.50;12.50;;;;;26.18;43.67;101957.06;5037013;28;45526;-79
2023/10/01 06:16:15;;;;;;;;;18.00;18.00;;;;;26.26;43.66;101965.50;5036266;28;45400;-79
2023/10/01 06:18:41;;;;;;;;;16.50;16.00;;;;;26.10;43.43;101932.16;5018355;28;47018;-79
2023/10/01 06:21:13;;;;;;;;;17.00;14.75;;;;;26.26;43.87;101963.63;5035824;28;45420;-76
2023/10/01 06:23:49;;;;;;;;;15.00;15.00;;;;;26.21;43.87;101946.63;5036875;28;45541;-79
2023/10/01 06:26:42;;;;;;;;;14.00;14.00;;;;;26.30;43.42;101970.56;5037108;28;45317;-75
2023/10/01 06:29:08;;;;;;;;;12.50;9.50;;;;;26.27;43.89;101965.38;5021396;28;46496;-78
2023/10/01 06:34:23;;;;;;;;;17.00;16.25;;;;;26.33;43.50;101967.53;5036008;28;45273;-77
2023/10/01 06:36:59;;;;;;;;;18.25;18.25;;;;;26.29;43.64;101963.31;5036096;28;45427;-78
2023/10/01 06:39:35;;;;;;;;;15.75;15.75;;;;;26.34;43.39;101971.16;5018431;28;47045;-78
2023/10/01 06:42:19;;;;;;;;;17.50;16.00;;;;;26.34;43.34;101961.03;5036062;28;45521;-77
2023/10/01 06:44:54;;;;;;;;;17.50;15.25;;;;;26.34;43.16;101966.53;5035798;28;45605;-76
2023/10/01 06:47:22;;;;;;;;;19.50;18.75;;;;;26.38;43.42;101956.09;5036046;28;45575;-77
2023/10/01 06:50:07;;;;;;;;;10.00;10.00;;;;;26.18;44.16;101944.19;5036077;28;46294;-79
2023/10/01 06:52:35;;;;;;;;;14.25;13.50;;;;;26.33;43.38;101966.66;5036290;28;45312;-78
2023/10/01 06:55:02;;;;;;;;;19.50;15.50;;;;;26.26;43.43;101941.63;5046025;28;45496;-78
2023/10/01 06:57:31;;;;;;;;;16.00;16.00;;;;;26.54;43.62;101950.88;5035997;28;45739;-80
2023/10/01 06:59:56;;;;;;;;;17.25;17.25;;;;;26.61;42.81;101951.19;5035256;28;45438;-78
2023/10/01 07:02:31;;;;;;;;;22.50;19.50;;;;;26.60;42.80;101953.09;5042162;28;45296;-77
2023/10/01 07:04:58;;;;;;;;;17.75;17.75;;;;;26.34;43.32;101919.78;5036144;28;45367;-76
2023/10/01 07:07:31;;;;;;;;;17.00;16.00;;;;;26.51;43.35;101948.44;5032660;28;45490;-80
2023/10/01 07:09:59;;;;;;;;;21.00;18.25;;;;;26.43;43.30;101937.31;5035433;28;45971;-79
2023/10/01 07:12:25;;;;;;;;;18.00;17.50;;;;;26.44;43.02;101944.53;5035758;28;45366;-82
2023/10/01 07:14:51;;;;;;;;;17.50;16.00;;;;;26.49;43.04;101955.09;5017149;28;45539;-76
2023/10/01 07:17:24;;;;;;;;;19.50;16.25;;;;;26.49;43.35;101958.72;5035204;28;45609;-81
2023/10/01 07:20:00;;;;;;;;;16.75;14.25;;;;;26.61;43.25;101956.69;5032123;28;45570;-78
2023/10/01 07:22:34;;;;;;;;;20.75;18.25;;;;;26.63;43.44;101958.28;5035589;28;45350;-79
2023/10/01 07:25:01;;;;;;;;;18.00;17.00;;;;;26.73;42.91;101961.03;5035379;28;45339;-79
2023/10/01 07:27:27;;;;;;;;;18.25;17.25;;;;;26.80;42.90;101966.81;5035783;28;45356;-79
2023/10/01 07:29:54;;;;;;;;;20.50;18.25;;;;;26.87;42.80;101960.59;5035554;28;45509;-79
2023/10/01 07:32:20;;;;;;;;;20.50;16.75;;;;;26.93;42.87;101965.53;5016008;28;45527;-78
2023/10/01 07:34:48;;;;;;;;;20.00;19.25;;;;;26.98;42.51;101959.59;5035613;28;45325;-79
2023/10/01 07:37:28;;;;;;;;;15.75;15.75;;;;;26.99;42.97;101966.81;5034754;28;46420;-79
2023/10/01 07:39:58;;;;;;;;;14.25;14.25;;;;;27.09;42.52;101964.94;5035255;28;46116;-78
2023/10/01 07:42:25;;;;;;;;;13.75;12.75;;;;;26.97;42.79;101928.44;5035452;28;45311;-78
2023/10/01 07:44:52;;;;;;;;;20.50;17.50;;;;;27.23;42.40;101958.94;5035033;28;45281;-79
2023/10/01 07:47:28;;;;;;;;;13.50;13.50;;;;;27.28;42.33;101958.50;5035239;28;45474;-79
2023/10/01 07:49:58;;;;;;;;;12.00;11.75;;;;;27.35;41.94;101966.03;5035062;28;45351;-78
2023/10/01 07:52:23;;;;;;;;;13.25;13.25;;;;;27.40;42.41;101955.41;5035199;28;45518;-78
2023/10/01 07:54:49;;;;;;;;;16.50;13.25;;;;;27.39;41.92;101964.69;5033828;28;45363;-80
2023/10/01 07:57:27;;;;;;;;;12.50;12.00;;;;;27.38;42.53;101973.13;5035193;28;45271;-78
2023/10/01 07:59:59;;;;;;;;;12.75;11.75;;;;;27.18;42.34;101968.69;5034732;28;46172;-80
2023/10/01 08:02:28;;;;;;;;;12.50;12.00;;;;;27.04;43.38;101956.25;5035264;28;45486;-79
2023/10/01 08:07:30;;;;;;;;;13.75;10.50;;;;;27.27;42.68;101979.69;5034842;28;45403;-78
2023/10/01 08:09:58;;;;;;;;;15.75;13.25;;;;;27.27;43.05;101968.66;5035833;28;46622;-78
2023/10/01 08:15:29;;;;;;;;;14.00;12.75;;;;;27.40;42.81;101969.19;5034674;28;45336;-78
2023/10/01 08:17:55;;;;;;;;;15.25;12.00;;;;;27.55;42.18;101985.28;5035001;28;46011;-79
2023/10/01 08:20:31;;;;;;;;;13.00;11.00;;;;;27.54;42.24;101984.41;5035062;28;45328;-79
2023/10/01 08:23:22;;;;;;;;;13.75;11.50;;;;;27.52;42.30;101969.00;5022832;28;45387;-79
2023/10/01 08:25:51;;;;;;;;;12.25;12.00;;;;;27.54;42.48;101970.63;5035401;28;45474;-80
2023/10/01 08:31:01;;;;;;;;;11.50;11.50;;;;;27.67;41.81;101967.53;5034152;28;46253;-79
2023/10/01 08:33:32;;;;;;;;;11.75;11.00;;;;;27.78;42.26;101987.50;5034493;28;45229;-78
2023/10/01 08:36:12;;;;;;;;;15.00;14.00;;;;;27.79;42.14;101983.72;5034798;28;45583;-77
2023/10/01 08:38:47;;;;;;;;;9.25;9.25;;;;;27.84;41.77;101986.88;5034088;28;45221;-79
2023/10/01 08:41:32;;;;;;;;;12.75;11.00;;;;;27.90;42.04;101981.81;5034542;28;45290;-78
2023/10/01 08:44:09;;;;;;;;;14.50;14.00;;;;;27.95;41.57;101984.94;5034413;28;45364;-80
2023/10/01 08:46:39;;;;;;;;;12.50;10.75;;;;;27.80;41.34;101960.66;5034392;28;45461;-79
2023/10/01 08:49:23;;;;;;;;;11.50;11.25;;;;;28.00;41.83;101985.34;5016494;28;45276;-80
2023/10/01 08:51:52;;;;;;;;;8.50;8.50;;;;;27.99;41.87;101969.81;5032982;28;47253;-79
2023/10/01 08:54:24;;;;;;;;;12.50;10.00;;;;;28.10;41.39;101977.88;5034244;28;45383;-78
2023/10/01 08:56:51;;;;;;;;;16.75;12.25;;;;;28.19;41.38;101969.59;5034342;28;45375;-78
2023/10/01 08:59:23;;;;;;;;;11.75;10.50;;;;;28.30;41.85;101982.31;5034370;28;45330;-79
2023/10/01 09:01:52;;;;;;;;;14.25;11.50;;;;;28.35;41.34;101965.28;5034066;28;45408;-79
2023/10/01 09:04:44;;;;;;;;;10.50;10.00;;;;;28.38;41.00;101967.72;5033890;28;45363;-78
2023/10/01 09:07:19;;;;;;;;;14.00;12.75;;;;;28.41;41.12;101970.19;5034292;28;45362;-78
2023/10/01 09:10:05;;;;;;;;;12.75;12.50;;;;;28.38;41.52;101967.72;5034100;28;45379;-80
2023/10/01 09:12:34;;;;;;;;;11.50;11.50;;;;;28.35;40.91;101945.97;5033967;28;46873;-79
2023/10/01 09:15:00;;;;;;;;;7.50;7.50;;;;;28.59;40.92;101971.03;5033726;28;45415;-79
2023/10/01 09:17:25;;;;;;;;;11.50;8.50;;;;;28.69;41.29;101976.47;5034136;28;45447;-79
2023/10/01 09:19:51;;;;;;;;;9.00;9.00;;;;;28.65;41.21;101951.09;5030251;28;45640;-79
2023/10/01 09:25:14;;;;;;;;;13.75;11.50;;;;;28.82;41.34;101974.22;5040411;28;45380;-78
2023/10/01 09:28:03;;;;;;;;;10.50;10.50;;;;;28.72;41.13;101962.38;5014476;28;45242;-79
2023/10/01 09:30:31;;;;;;;;;10.25;9.50;;;;;28.91;40.75;101974.16;5013889;28;45407;-80
2023/10/01 09:33:05;;;;;;;;;14.00;11.25;;;;;28.97;41.22;101973.50;5013427;28;46354;-78
2023/10/01 09:36:02;;;;;;;;;8.00;8.00;;;;;28.78;41.21;101965.38;5013889;28;45402;-80
2023/10/01 09:38:29;;;;;;;;;9.00;9.00;;;;;28.72;41.22;101956.84;5014130;28;45428;-78
2023/10/01 09:40:56;;;;;;;;;10.75;10.75;;;;;28.85;41.04;101966.47;5013894;28;45482;-79
2023/10/01 09:43:27;;;;;;;;;11.00;10.25;;;;;28.91;41.54;101962.22;5013849;28;45437;-79
2023/10/01 09:45:54;;;;;;;;;8.50;8.00;;;;;28.98;40.79;101950.38;5013752;28;45326;-80
2023/10/01 09:48:36;;;;;;;;;10.75;10.75;;;;;29.11;40.72;101960.13;5013861;28;45384;-78
2023/10/01 09:51:07;;;;;;;;;9.00;8.75;;;;;29.13;40.63;101960.84;5013994;28;45347;-79
2023/10/01 09:53:50;;;;;;;;;8.75;6.75;;;;;29.14;40.94;101957.91;5013369;28;45563;-79
2023/10/01 09:56:29;;;;;;;;;7.00;7.00;;;;;29.24;40.77;101958.69;5015766;28;45538;-78
2023/10/01 09:58:58;;;;;;;;;11.50;9.00;;;;;29.29;40.90;101958.19;5017409;28;45226;-79
2023/10/01 10:01:30;;;;;;;;;11.75;9.00;;;;;29.25;40.53;101956.78;5016585;28;45490;-80
2023/10/01 10:03:59;;;;;;;;;9.00;8.50;;;;;29.39;40.33;101958.09;5016993;28;46098;-80
2023/10/01 10:06:25;;;;;;;;;11.00;9.50;;;;;29.44;40.56;101945.53;5016907;28;45353;-79
2023/10/01 10:09:04;;;;;;;;;8.50;8.00;;;;;29.53;40.25;101949.19;5017262;28;45384;-79
2023/10/01 10:11:38;;;;;;;;;10.50;8.50;;;;;29.79;40.43;101943.63;5024634;28;45244;-79
2023/10/01 10:14:27;;;;;;;;;9.00;9.00;;;;;29.86;40.05;101951.06;5018575;28;47434;-79
2023/10/01 10:19:57;;;;;;;;;7.00;7.00;;;;;29.94;39.63;101917.13;5032778;28;45516;-79
2023/10/01 10:22:25;;;;;;;;;9.00;8.75;;;;;30.06;39.88;101932.34;5036599;28;45414;-78
2023/10/01 10:25:21;;;;;;;;;11.25;9.75;;;;;30.22;39.77;101942.56;5042130;28;46220;-79
2023/10/01 10:27:46;;;;;;;;;10.00;8.75;;;;;30.29;38.90;101941.72;5023444;28;45354;-79
2023/10/01 10:30:14;;;;;;;;;8.50;6.25;;;;;30.33;39.42;101942.25;5036604;28;45430;-80
2023/10/01 10:33:00;;;;;;;;;6.75;6.75;;;;;30.43;38.54;101945.75;5036278;28;45532;-80
2023/10/01 10:35:26;;;;;;;;;8.75;8.75;;;;;30.47;38.89;101927.75;5036077;28;45467;-79
2023/10/01 10:37:55;;;;;;;;;8.00;6.50;;;;;30.61;38.61;101921.59;5036484;28;45356;-80
2023/10/01 10:42:46;;;;;;;;;11.25;8.75;;;;;30.80;38.54;101926.75;5036424;28;45395;-80
2023/10/01 10:48:03;;;;;;;;;9.00;7.00;;;;;30.94;38.42;101922.44;5036366;28;45331;-80
2023/10/01 10:50:50;;;;;;;;;6.75;6.75;;;;;30.99;38.01;101928.28;5036601;28;45338;-80
2023/10/01 10:53:21;;;;;;;;;8.50;6.00;;;;;30.96;38.00;101903.75;5036101;28;45186;-80
2023/10/01 10:56:09;;;;;;;;;7.50;7.50;;;;;31.13;37.83;101912.91;5036327;28;46294;-78
2023/10/01 10:58:40;;;;;;;;;7.75;6.75;;;;;31.22;37.69;101902.69;5018329;28;45446;-79
2023/10/01 11:01:16;;;;;;;;;8.25;8.25;;;;;31.52;36.87;101916.59;5035885;28;45473;-79
2023/10/01 11:03:44;;;;;;;;;7.25;5.75;;;;;31.67;37.15;101910.31;5036287;28;45488;-78
2023/10/01 11:06:47;;;;;;;;;7.00;7.00;;;;;31.85;37.25;101916.47;5035838;28;46354;-80
2023/10/01 11:09:30;;;;;;;;;6.50;6.50;;;;;31.92;36.78;101903.63;5036343;28;45514;-80
2023/10/01 11:12:00;;;;;;;;;9.00;8.00;;;;;32.00;36.67;101899.94;5036300;28;45462;-79
2023/10/01 11:14:26;;;;;;;;;9.00;9.00;;;;;32.07;36.45;101896.22;5017595;28;46390;-79
2023/10/01 11:16:52;;;;;;;;;9.00;7.00;;;;;32.33;35.82;101905.09;5035656;28;46057;-78
2023/10/01 11:19:25;;;;;;;;;8.50;6.75;;;;;32.52;36.09;101892.66;5031605;28;45465;-79
2023/10/01 11:22:00;;;;;;;;;7.00;7.00;;;;;32.63;35.22;101906.09;5036118;28;45244;-78
2023/10/01 11:24:47;;;;;;;;;7.00;6.50;;;;;32.79;35.70;101891.22;5038156;28;45318;-78
2023/10/01 11:27:22;;;;;;;;;7.00;7.00;;;;;33.11;34.95;101892.81;5023531;28;45303;-79
2023/10/01 11:35:37;;;;;;;;;11.25;9.50;;;;;33.62;34.01;101877.09;5035388;28;45362;-79
2023/10/01 11:38:14;;;;;;;;;10.75;9.00;;;;;34.00;32.62;101880.63;5035684;28;45438;-78
2023/10/01 11:43:38;;;;;;;;;8.50;8.50;;;;;34.72;31.95;101880.50;5015588;28;45371;-79
2023/10/01 11:46:28;;;;;;;;;9.75;7.75;;;;;35.57;31.23;101882.19;5015376;28;45376;-80
2023/10/01 11:49:06;;;;;;;;;10.50;9.75;;;;;36.41;30.32;101871.56;5022822;28;45416;-79
2023/10/01 11:51:48;;;;;;;;;10.25;8.25;;;;;37.37;28.98;101850.44;5017358;28;45379;-80
2023/10/01 11:54:16;;;;;;;;;9.00;6.75;;;;;38.36;27.13;101872.41;5035959;28;45286;-81
2023/10/01 11:57:04;;;;;;;;;7.75;7.75;;;;;39.03;25.26;101878.34;5034988;28;45559;-79
2023/10/01 11:59:31;;;;;;;;;9.50;8.00;;;;;39.77;25.22;101875.34;5034850;28;45515;-79
2023/10/01 12:02:15;;;;;;;;;10.00;8.00;;;;;40.63;24.28;101874.97;5035245;28;45364;-78
2023/10/01 12:04:44;;;;;;;;;9.00;8.50;;;;;41.27;23.40;101866.69;5035185;28;45159;-80
2023/10/01 12:07:17;;;;;;;;;10.00;7.50;;;;;41.83;23.29;101866.84;5035265;28;45252;-80
2023/10/01 12:09:50;;;;;;;;;7.75;7.75;;;;;42.24;22.16;101862.88;5034700;28;46104;-80
2023/10/01 12:12:36;;;;;;;;;6.75;6.75;;;;;42.52;21.45;101878.06;5016829;28;45264;-79
2023/10/01 12:17:47;;;;;;;;;9.75;8.00;;;;;42.96;20.59;101862.19;5016161;28;45427;-80
2023/10/01 12:20:22;;;;;;;;;9.25;8.00;;;;;43.70;19.93;101845.75;5026345;28;45856;-80
2023/10/01 12:23:04;;;;;;;;;11.00;10.00;;;;;44.33;19.42;101825.25;5034799;28;45475;-79
2023/10/01 12:25:44;;;;;;;;;7.00;7.00;;;;;44.77;18.89;101839.22;5043178;28;45598;-80
2023/10/01 12:28:15;;;;;;;;;11.50;8.50;;;;;45.20;18.29;101830.47;5003671;28;45393;-79
2023/10/01 12:30:40;;;;;;;;;7.50;6.50;;;;;45.80;18.32;101837.53;4996372;28;46354;-79
2023/10/01 12:33:06;;;;;;;;;14.00;10.00;;;;;46.33;17.42;101835.44;5020985;28;45363;-79
2023/10/01 12:35:32;;;;;;;;;8.75;7.25;;;;;46.81;17.22;101842.50;5014702;28;46015;-80
2023/10/01 12:38:05;;;;;;;;;8.50;6.50;;;;;47.16;16.76;101837.91;4997132;28;45219;-80
2023/10/01 12:40:35;;;;;;;;;12.75;8.25;;;;;47.38;16.41;101836.47;5014466;28;46064;-79
2023/10/01 12:43:36;;;;;;;;;8.25;8.25;;;;;47.38;16.50;101830.78;5014597;28;45558;-80
2023/10/01 12:45:54;;;;;;;;;8.25;7.50;;;;;47.39;15.98;101832.47;5014142;28;45543;-81
2023/10/01 12:48:20;;;;;;;;;6.75;5.75;;;;;47.01;16.55;101814.13;5014329;28;45206;-79
2023/10/01 12:51:00;;;;;;;;;10.00;8.00;;;;;47.38;16.54;101821.41;5014757;28;45435;-80
2023/10/01 12:53:27;;;;;;;;;6.50;6.50;;;;;47.45;15.96;101830.47;5013170;28;45476;-80
2023/10/01 12:55:52;;;;;;;;;11.25;7.75;;;;;47.40;15.50;101807.72;5008386;28;45393;-79
2023/10/01 12:58:22;;;;;;;;;12.00;7.25;;;;;47.06;16.21;101818.91;5015992;28;45853;-80
2023/10/01 13:00:48;;;;;;;;;11.50;6.00;;;;;47.46;16.38;101814.25;5014222;28;46221;-80
2023/10/01 13:03:16;;;;;;;;;8.00;8.00;;;;;47.52;15.64;101813.94;5014089;28;45383;-79
2023/10/01 13:05:44;;;;;;;;;8.50;8.00;;;;;47.72;16.12;101804.50;5014441;28;45274;-80
2023/10/01 13:08:11;;;;;;;;;6.25;5.75;;;;;47.41;15.38;101798.94;5014324;28;45406;-81
2023/10/01 13:10:38;;;;;;;;;7.25;6.25;;;;;47.18;15.75;101821.44;5014177;28;45952;-79
2023/10/01 13:13:08;;;;;;;;;9.50;8.25;;;;;47.20;15.77;101813.50;5020920;28;45394;-81
2023/10/01 13:15:36;;;;;;;;;6.00;5.00;;;;;47.63;15.68;101811.91;5033928;28;45261;-79
2023/10/01 13:18:14;;;;;;;;;11.50;7.75;;;;;47.55;15.62;101806.84;5033787;28;46172;-78
2023/10/01 13:23:24;;;;;;;;;8.75;7.25;;;;;47.53;16.04;101807.13;5033766;28;45434;-78
2023/10/01 13:26:05;;;;;;;;;10.25;8.75;;;;;47.86;15.37;101794.16;5038611;28;45501;-79
2023/10/01 13:28:43;;;;;;;;;8.00;8.00;;;;;48.32;14.78;101799.53;5013920;28;45352;-80
2023/10/01 13:31:11;;;;;;;;;8.50;6.75;;;;;48.78;14.51;101788.56;5016941;28;46535;-81
2023/10/01 13:36:35;;;;;;;;;6.50;5.25;;;;;49.12;14.60;101786.50;5017647;28;45387;-80
2023/10/01 13:39:25;;;;;;;;;8.25;6.00;;;;;49.36;14.36;101786.47;5017445;28;46640;-81
2023/10/01 14:09:16;;;;;;;;;5.50;5.50;;;;;49.24;13.72;101738.47;5016898;28;45372;-79
2023/10/01 14:11:41;;;;;;;;;7.25;5.50;;;;;49.24;13.92;101738.47;5016841;28;45419;-80
2023/10/01 14:14:16;;;;;;;;;7.00;5.00;;;;;48.53;14.58;101727.91;5016918;28;46205;-78
2023/10/01 14:16:42;;;;;;;;;6.00;5.00;;;;;48.15;15.08;101732.50;5016618;28;45347;-79
2023/10/01 14:19:17;;;;;;;;;9.50;7.50;;;;;48.04;14.44;101721.50;5019414;28;45397;-79
2023/10/01 14:21:42;;;;;;;;;6.00;6.00;;;;;47.74;15.00;101722.59;5036705;28;45397;-79
2023/10/01 14:24:24;;;;;;;;;9.25;7.00;;;;;47.42;15.19;101712.56;5036410;28;45922;-78
2023/10/01 14:26:50;;;;;;;;;7.50;6.50;;;;;47.24;15.63;101710.34;5023270;28;45447;-79
2023/10/01 14:29:22;;;;;;;;;6.25;6.00;;;;;47.20;15.22;101709.25;5015109;28;45331;-79
2023/10/01 14:31:56;;;;;;;;;8.00;6.75;;;;;47.04;15.51;101699.13;5016328;28;45950;-80
2023/10/01 14:34:22;;;;;;;;;11.25;5.50;;;;;46.89;15.42;101705.66;5016606;28;45464;-79
2023/10/01 14:36:51;;;;;;;;;6.00;5.50;;;;;46.26;15.98;101705.25;5016422;28;45504;-79
2023/10/01 14:39:18;;;;;;;;;3.75;3.75;;;;;45.53;16.36;101698.06;5016817;28;45325;-79
2023/10/01 14:41:50;;;;;;;;;9.00;5.00;;;;;45.11;16.89;101698.19;5015630;28;45445;-78
2023/10/01 14:44:24;;;;;;;;;10.25;8.00;;;;;44.88;17.62;101693.00;5016199;28;46655;-79
2023/10/01 14:46:51;;;;;;;;;6.75;6.00;;;;;44.29;17.52;101702.50;5016143;28;45400;-79
2023/10/01 14:49:22;;;;;;;;;7.25;5.25;;;;;43.69;18.52;101695.16;5016441;28;45353;-79
2023/10/01 14:51:48;;;;;;;;;9.25;6.75;;;;;43.53;18.50;101696.09;5016072;28;45306;-79
2023/10/01 14:54:18;;;;;;;;;6.00;6.00;;;;;43.54;17.98;101682.84;5016313;28;45945;-79
2023/10/01 14:56:49;;;;;;;;;9.00;6.00;;;;;43.50;18.36;101685.34;5016061;28;45436;-79
2023/10/01 14:59:15;;;;;;;;;8.50;7.75;;;;;43.20;18.96;101679.38;5008003;28;45341;-77
2023/10/01 15:01:41;;;;;;;;;9.00;6.25;;;;;43.17;18.75;101677.91;5015739;28;45404;-79
2023/10/01 15:04:17;;;;;;;;;7.75;7.50;;;;;42.88;18.68;101679.22;5016050;28;46122;-79
2023/10/01 15:06:56;;;;;;;;;7.00;6.00;;;;;42.80;19.54;101672.06;5023764;28;45380;-77
2023/10/01 15:09:36;;;;;;;;;7.75;6.50;;;;;42.68;19.71;101668.50;5035636;28;45488;-80
2023/10/01 15:12:04;;;;;;;;;10.50;7.50;;;;;42.64;19.63;101687.03;5035818;28;45344;-79
2023/10/01 15:14:33;;;;;;;;;9.00;7.75;;;;;42.52;20.18;101681.53;5035373;28;46294;-77
2023/10/01 15:17:01;;;;;;;;;6.00;5.75;;;;;42.54;19.79;101684.06;5035767;28;45416;-77
2023/10/01 15:19:27;;;;;;;;;6.75;6.50;;;;;42.83;19.09;101674.38;5031755;28;45467;-76
2023/10/01 15:22:13;;;;;;;;;9.00;5.50;;;;;43.01;19.18;101651.47;5035696;28;45379;-80
2023/10/01 15:24:43;;;;;;;;;11.75;10.25;;;;;43.46;18.21;101672.03;5039911;28;45393;-77
2023/10/01 15:27:23;;;;;;;;;7.25;6.25;;;;;43.53;18.74;101655.72;5025703;28;45403;-79
2023/10/01 15:29:55;;;;;;;;;8.50;6.50;;;;;43.84;18.71;101679.47;5021883;28;45316;-79
2023/10/01 15:32:20;;;;;;;;;7.25;5.75;;;;;43.55;19.16;101668.50;5017710;28;45403;-76
2023/10/01 15:34:46;;;;;;;;;6.75;6.75;;;;;43.34;18.92;101667.38;5015584;28;45939;-76
2023/10/01 15:37:15;;;;;;;;;6.50;5.50;;;;;42.94;19.51;101656.47;5018942;28;46218;-74
2023/10/01 15:39:41;;;;;;;;;8.75;4.75;;;;;42.65;19.58;101660.53;5025413;28;45370;-75
2023/10/01 15:42:11;;;;;;;;;10.50;8.75;;;;;42.42;20.32;101670.09;5024223;28;45307;-78
2023/10/01 15:44:43;;;;;;;;;8.50;6.75;;;;;42.03;20.60;101677.63;5018525;28;46969;-78
2023/10/01 15:50:06;;;;;;;;;7.25;7.00;;;;;41.50;20.67;101662.00;5018477;28;45309;-74
2023/10/01 15:52:49;;;;;;;;;8.25;4.75;;;;;41.31;21.33;101657.69;5017449;28;45384;-75
2023/10/01 15:55:19;;;;;;;;;7.75;7.50;;;;;41.14;21.46;101654.84;5029984;28;45738;-78
2023/10/01 15:58:01;;;;;;;;;8.25;6.00;;;;;40.83;21.83;101646.84;5034889;28;45395;-78
2023/10/01 16:00:29;;;;;;;;;11.00;10.75;;;;;40.70;21.67;101655.53;5017455;28;45440;-75
2023/10/01 16:03:07;;;;;;;;;7.25;7.25;;;;;40.35;22.05;101648.00;5042746;28;45576;-76
2023/10/01 16:05:42;;;;;;;;;7.75;5.75;;;;;40.02;22.38;101648.56;5015324;28;46178;-80
2023/10/01 16:08:20;;;;;;;;;6.50;6.50;;;;;39.81;22.72;101645.47;4996726;28;45372;-78
2023/10/01 16:10:50;;;;;;;;;9.25;8.00;;;;;39.63;22.58;101646.41;5014886;28;45470;-77
2023/10/01 16:13:17;;;;;;;;;7.25;6.00;;;;;39.31;23.07;101634.56;5014547;28;45561;-78
2023/10/01 16:15:48;;;;;;;;;10.00;9.00;;;;;39.18;23.13;101646.84;5014344;28;45505;-77
2023/10/01 16:18:15;;;;;;;;;12.75;7.25;;;;;39.07;23.78;101655.19;5014033;28;45376;-74
2023/10/01 16:20:41;;;;;;;;;6.50;6.25;;;;;38.89;23.69;101642.03;5033612;28;45395;-73
2023/10/01 16:23:16;;;;;;;;;7.75;6.75;;;;;38.89;23.44;101653.25;5035790;28;45439;-75
2023/10/01 16:25:47;;;;;;;;;10.75;9.50;;;;;38.82;24.54;101655.28;5031911;28;46213;-77
2023/10/01 16:28:26;;;;;;;;;10.25;9.25;;;;;38.73;24.44;101653.88;5022129;28;45375;-76
2023/10/01 16:31:02;;;;;;;;;9.00;7.00;;;;;38.63;24.44;101661.97;5020834;28;45449;-72
2023/10/01 16:33:41;;;;;;;;;15.00;10.25;;;;;38.46;25.78;101661.72;5024051;28;45607;-74
2023/10/01 16:36:11;;;;;;;;;6.25;6.25;;;;;38.37;25.11;101665.91;5024259;28;46209;-73
2023/10/01 16:38:41;;;;;;;;;10.25;6.00;;;;;38.14;26.06;101666.56;5019122;28;45509;-75
2023/10/01 16:41:11;;;;;;;;;12.00;9.75;;;;;37.93;25.39;101659.41;5009858;28;45948;-74
2023/10/01 16:43:42;;;;;;;;;9.00;7.50;;;;;37.84;26.30;101661.66;5025280;28;45262;-75
2023/10/01 16:46:18;;;;;;;;;6.75;5.25;;;;;37.61;25.46;101655.78;5030605;28;46263;-73
2023/10/01 16:48:46;;;;;;;;;9.00;6.75;;;;;37.49;25.34;101646.38;5034544;28;45406;-74
2023/10/01 16:53:45;;;;;;;;;5.25;4.50;;;;;37.14;26.11;101643.16;5033062;28;45312;-73
2023/10/01 16:56:12;;;;;;;;;8.75;4.25;;;;;37.15;26.15;101653.25;5027897;28;46414;-75
2023/10/01 16:58:40;;;;;;;;;7.25;7.00;;;;;37.06;26.43;101654.56;5017632;28;45395;-74
2023/10/01 17:01:14;;;;;;;;;19.75;18.00;;;;;36.95;27.13;101658.06;5009382;28;45499;-78
2023/10/01 17:03:53;;;;;;;;;66.75;50.25;;;;;36.83;27.18;101659.84;5034303;28;45313;-75
2023/10/01 17:06:21;;;;;;;;;96.00;93.25;;;;;36.73;27.44;101661.16;5020693;28;46344;-76
2023/10/01 17:08:47;;;;;;;;;44.00;36.75;;;;;36.66;28.05;101659.44;5023794;28;46387;-76
2023/10/01 17:11:16;;;;;;;;;12.00;10.50;;;;;36.58;27.02;101660.50;5025973;28;45320;-75
2023/10/01 17:13:43;;;;;;;;;89.50;76.25;;;;;36.60;29.64;101668.69;5026901;28;45601;-75
2023/10/01 17:16:25;;;;;;;;;25.00;21.75;;;;;36.49;28.42;101652.63;5034492;28;45402;-72
2023/10/01 17:19:03;;;;;;;;;34.50;28.25;;;;;36.47;29.39;101665.94;5012171;28;45749;-74
2023/10/01 17:21:37;;;;;;;;;23.75;23.25;;;;;36.30;28.95;101654.38;5035501;28;45315;-75
2023/10/01 17:24:11;;;;;;;;;36.25;33.50;;;;;36.35;28.94;101663.81;5019140;28;46471;-71
2023/10/01 17:26:50;;;;;;;;;16.50;15.00;;;;;36.26;28.61;101656.72;5010661;28;47345;-75